Time;durP1;ratioP1;P1;durP2;ratioP2;P2;SDS_P1;SDS_P2;PMS_P1;PMS_P2;Temp;Humidity;BMP_temperature;BMP_pressure;BME280_temperature;BME280_humidity;BME280_pressure;Samples;Min_cycle;Max_cycle;Signal;HPM_P1;HPM_P2
2023/06/12 00:01:47;;;;;;;7.33;3.53;;;;;;;17.68;100.00;102076.41;5067233;28;20208;-70
2023/06/12 00:04:13;;;;;;;6.77;3.40;;;;;;;17.70;100.00;102077.31;5066299;28;20683;-70
2023/06/12 00:06:39;;;;;;;5.27;2.57;;;;;;;17.68;100.00;102071.25;5065150;28;20254;-70
2023/06/12 00:09:05;;;;;;;6.90;3.20;;;;;;;17.69;100.00;102067.78;5067813;28;20197;-70
2023/06/12 00:11:32;;;;;;;5.50;3.03;;;;;;;17.67;100.00;102071.22;5064195;28;20236;-70
2023/06/12 00:13:57;;;;;;;5.17;3.37;;;;;;;17.55;100.00;102094.44;5063245;28;20228;-70
2023/06/12 00:16:24;;;;;;;6.07;2.83;;;;;;;17.55;100.00;102094.44;5070941;28;20246;-70
2023/06/12 00:18:49;;;;;;;5.80;3.13;;;;;;;17.46;100.00;102100.34;5067920;28;20215;-70
2023/06/12 00:21:15;;;;;;;4.50;3.20;;;;;;;17.47;100.00;102101.22;5067580;28;20189;-70
2023/06/12 00:23:41;;;;;;;5.07;2.87;;;;;;;17.45;100.00;102100.34;5063943;28;20209;-70
2023/06/12 00:26:08;;;;;;;6.50;3.20;;;;;;;17.47;100.00;102096.06;5071910;28;20234;-70
2023/06/12 00:28:34;;;;;;;6.07;3.07;;;;;;;17.39;100.00;102095.97;5073283;28;20196;-70
2023/06/12 00:31:00;;;;;;;6.17;3.10;;;;;;;17.40;100.00;102086.50;5070291;28;20197;-70
2023/06/12 00:33:26;;;;;;;4.70;3.17;;;;;;;17.34;100.00;102096.72;5067409;28;20219;-70
2023/06/12 00:35:52;;;;;;;6.90;3.40;;;;;;;17.33;100.00;102087.22;5067677;28;20201;-70
2023/06/12 00:38:18;;;;;;;7.57;3.27;;;;;;;17.30;100.00;102069.94;5065890;28;20678;-70
2023/06/12 00:40:43;;;;;;;6.03;3.30;;;;;;;17.31;100.00;102060.44;5066986;28;20185;-71
2023/06/12 00:43:09;;;;;;;5.77;3.30;;;;;;;17.33;100.00;102051.84;5052318;28;20951;-71
2023/06/12 00:45:35;;;;;;;3.47;3.17;;;;;;;17.29;100.00;102059.53;5067494;28;20204;-71
2023/06/12 00:48:01;;;;;;;7.70;3.60;;;;;;;17.25;100.00;102057.78;5065678;28;20220;-71
2023/06/12 00:50:27;;;;;;;8.87;3.60;;;;;;;17.23;100.00;102064.66;5066294;28;20224;-71
2023/06/12 00:52:55;;;;;;;5.33;3.77;;;;;;;17.22;100.00;102068.09;5067974;28;20840;-70
2023/06/12 00:55:21;;;;;;;6.00;3.90;;;;;;;17.23;100.00;102056.91;5064773;28;20189;-71
2023/06/12 00:57:47;;;;;;;4.37;3.27;;;;;;;17.19;100.00;102065.47;5068867;28;20735;-70
2023/06/12 01:00:14;;;;;;;7.77;3.40;;;;;;;17.15;100.00;102063.69;5067120;28;20629;-70
2023/06/12 01:02:44;;;;;;;4.27;3.10;;;;;;;17.14;100.00;102052.44;5069596;28;20208;-70
2023/06/12 01:05:12;;;;;;;4.60;3.33;;;;;;;17.13;100.00;102065.41;5068375;28;20221;-70
2023/06/12 01:07:51;;;;;;;6.27;3.37;;;;;;;17.10;100.00;102066.25;5067061;28;20185;-70
2023/06/12 01:10:44;;;;;;;5.87;3.60;;;;;;;17.12;100.00;102064.53;5068613;28;20749;-71
2023/06/12 01:13:11;;;;;;;9.03;3.80;;;;;;;17.07;100.00;102063.59;5080931;28;20205;-70
2023/06/12 01:15:38;;;;;;;6.33;3.40;;;;;;;17.07;100.00;102075.66;5084916;28;20581;-70
2023/06/12 01:18:07;;;;;;;8.37;4.00;;;;;;;17.00;100.00;102073.88;5072739;28;20560;-70
2023/06/12 01:20:34;;;;;;;5.17;3.20;;;;;;;16.98;100.00;102081.59;5083292;28;20562;-70
2023/06/12 01:23:25;;;;;;;7.00;3.63;;;;;;;16.94;100.00;102085.00;5069545;28;20562;-70
2023/06/12 01:25:54;;;;;;;4.97;3.43;;;;;;;16.97;100.00;102060.88;5066581;28;20539;-70
2023/06/12 01:28:26;;;;;;;8.27;3.77;;;;;;;16.94;100.00;102059.09;5070483;28;20252;-70
2023/06/12 01:31:06;;;;;;;7.00;3.60;;;;;;;16.92;100.00;102070.28;5069310;28;20192;-70
2023/06/12 01:33:36;;;;;;;10.40;3.67;;;;;;;16.94;100.00;102068.63;5066422;28;20204;-70
2023/06/12 01:36:03;;;;;;;5.33;3.40;;;;;;;16.86;100.00;102071.06;5069101;28;20193;-70
2023/06/12 01:38:32;;;;;;;4.53;3.80;;;;;;;16.84;100.00;102071.91;5075090;28;20185;-70
2023/06/12 01:40:59;;;;;;;8.43;3.80;;;;;;;16.89;100.00;102054.72;5069968;28;20190;-70
2023/06/12 01:43:25;;;;;;;6.77;3.27;;;;;;;16.88;100.00;102048.69;5078143;28;20281;-70
2023/06/12 01:45:51;;;;;;;6.77;3.53;;;;;;;16.81;100.00;102066.72;5076535;28;20192;-70
2023/06/12 01:48:17;;;;;;;6.23;3.60;;;;;;;16.80;100.00;102068.41;5067015;28;20189;-70
2023/06/12 01:50:43;;;;;;;4.93;3.20;;;;;;;16.74;100.00;102076.09;5058056;28;20629;-70
2023/06/12 01:53:13;;;;;;;7.23;3.93;;;;;;;16.77;100.00;102075.28;5054678;28;20860;-70
2023/06/12 01:55:41;;;;;;;8.80;3.83;;;;;;;16.82;100.00;102063.25;5072379;28;20189;-70
2023/06/12 01:58:08;;;;;;;7.13;3.60;;;;;;;16.77;100.00;102063.19;5066134;28;20565;-70
2023/06/12 02:00:58;;;;;;;4.07;3.47;;;;;;;16.82;100.00;102058.09;5089788;28;20192;-70
2023/06/12 02:03:25;;;;;;;6.73;3.93;;;;;;;16.81;100.00;102059.78;5092660;28;20266;-71
2023/06/12 02:05:50;;;;;;;8.30;4.00;;;;;;;16.82;100.00;102053.78;5068306;28;20670;-70
2023/06/12 02:08:16;;;;;;;5.73;3.87;;;;;;;16.81;100.00;102048.59;5068338;28;20672;-70
2023/06/12 02:10:41;;;;;;;6.93;4.10;;;;;;;16.82;100.00;102048.63;5058884;28;20682;-71
2023/06/12 02:13:07;;;;;;;8.67;3.80;;;;;;;16.87;100.00;102048.66;5079070;28;20201;-71
2023/06/12 02:15:32;;;;;;;6.47;3.50;;;;;;;16.79;100.00;102053.75;5068677;28;20192;-71
2023/06/12 02:17:59;;;;;;;7.03;3.77;;;;;;;16.83;100.00;102049.47;5068510;28;20233;-71
2023/06/12 02:20:24;;;;;;;3.93;3.53;;;;;;;16.83;100.00;102055.53;5068290;28;20224;-70
2023/06/12 02:22:49;;;;;;;7.37;4.00;;;;;;;16.80;100.00;102050.28;5076612;28;20256;-70
2023/06/12 02:25:16;;;;;;;5.50;4.03;;;;;;;16.84;100.00;102062.44;5051614;28;20230;-70
2023/06/12 02:27:43;;;;;;;7.53;4.07;;;;;;;16.84;100.00;102070.19;5068051;28;20238;-70
2023/06/12 02:30:09;;;;;;;6.30;4.00;;;;;;;16.85;100.00;102068.50;5068092;28;20193;-71
2023/06/12 02:32:35;;;;;;;7.77;3.93;;;;;;;16.83;100.00;102062.41;5066475;28;20601;-71
2023/06/12 02:35:02;;;;;;;5.70;4.33;;;;;;;16.86;100.00;102058.13;5051445;28;20192;-70
2023/06/12 02:37:28;;;;;;;6.37;4.33;;;;;;;16.84;100.00;102053.78;5064187;28;20571;-70
2023/06/12 02:39:54;;;;;;;7.97;4.07;;;;;;;16.81;100.00;102064.13;5070512;28;20238;-70
2023/06/12 02:42:19;;;;;;;6.00;4.03;;;;;;;16.86;100.00;102057.28;5071908;28;20756;-70
2023/06/12 02:44:45;;;;;;;9.73;4.97;;;;;;;16.85;100.00;102051.22;5076640;28;20210;-70
2023/06/12 02:47:11;;;;;;;8.40;4.57;;;;;;;16.79;100.00;102058.91;5054967;28;20192;-70
2023/06/12 02:49:44;;;;;;;8.20;4.60;;;;;;;16.80;100.00;102047.72;5067565;28;20652;-70
2023/06/12 02:52:11;;;;;;;7.63;4.70;;;;;;;16.79;100.00;102047.69;5069959;28;20231;-70
2023/06/12 02:54:37;;;;;;;7.07;4.63;;;;;;;16.75;100.00;102048.50;5062670;28;20212;-70
2023/06/12 02:57:03;;;;;;;5.90;4.80;;;;;;;16.71;100.00;102062.25;5071745;28;20191;-70
2023/06/12 02:59:28;;;;;;;8.17;5.00;;;;;;;16.74;100.00;102054.53;5079297;28;20189;-70
2023/06/12 03:02:00;;;;;;;5.90;4.70;;;;;;;16.77;100.00;102058.00;5074163;28;20677;-70
2023/06/12 03:04:45;;;;;;;5.90;4.50;;;;;;;16.74;100.00;102065.75;5068983;28;20176;-70
2023/06/12 03:07:12;;;;;;;7.47;4.40;;;;;;;16.65;100.00;102083.72;5066396;28;20214;-70
2023/06/12 03:09:38;;;;;;;9.60;4.63;;;;;;;16.64;100.00;102082.00;5071139;28;20188;-70
2023/06/12 03:12:05;;;;;;;10.33;4.57;;;;;;;16.57;100.00;102085.31;5079376;28;20189;-70
2023/06/12 03:14:33;;;;;;;10.03;4.83;;;;;;;16.53;100.00;102101.63;5065591;28;20201;-70
2023/06/12 03:16:59;;;;;;;6.37;4.30;;;;;;;16.57;100.00;102087.91;5069592;28;20227;-70
2023/06/12 03:19:24;;;;;;;10.37;5.10;;;;;;;16.53;100.00;102093.03;5073195;28;20224;-70
2023/06/12 03:21:50;;;;;;;7.50;4.67;;;;;;;16.52;100.00;102096.44;5068787;28;20252;-70
2023/06/12 03:24:15;;;;;;;7.50;5.20;;;;;;;16.51;100.00;102102.47;5066224;28;20213;-70
2023/06/12 03:26:41;;;;;;;7.90;5.10;;;;;;;16.49;100.00;102093.81;5068535;28;20199;-70
2023/06/12 03:29:08;;;;;;;9.47;5.47;;;;;;;16.50;100.00;102088.69;5057503;28;20689;-70
2023/06/12 03:31:33;;;;;;;6.33;5.13;;;;;;;16.49;100.00;102092.09;5069051;28;20178;-70
2023/06/12 03:34:00;;;;;;;8.00;4.57;;;;;;;16.55;100.00;102086.16;5067533;28;20200;-70
2023/06/12 03:36:25;;;;;;;7.40;4.50;;;;;;;16.55;100.00;102087.03;5074273;28;20193;-70
2023/06/12 03:38:51;;;;;;;5.97;4.17;;;;;;;16.56;100.00;102085.28;5070462;28;20200;-71
2023/06/12 03:41:21;;;;;;;6.43;4.50;;;;;;;16.54;100.00;102087.84;5084403;28;20189;-70
2023/06/12 03:43:47;;;;;;;7.07;4.83;;;;;;;16.54;100.00;102081.81;5071246;28;20224;-70
2023/06/12 03:46:13;;;;;;;6.43;4.73;;;;;;;16.53;100.00;102093.88;5081012;28;20283;-70
2023/06/12 03:48:39;;;;;;;6.83;4.63;;;;;;;16.56;100.00;102087.88;5069381;28;20184;-70
2023/06/12 03:51:05;;;;;;;7.00;5.40;;;;;;;16.57;100.00;102092.22;5071463;28;20286;-70
2023/06/12 03:53:31;;;;;;;7.27;5.23;;;;;;;16.55;100.00;102099.97;5071871;28;20197;-70
2023/06/12 03:55:57;;;;;;;8.53;5.50;;;;;;;16.56;100.00;102096.53;5074412;28;20258;-70
2023/06/12 03:58:24;;;;;;;9.33;5.57;;;;;;;16.57;100.00;102102.56;5073557;28;20850;-70
2023/06/12 04:00:50;;;;;;;10.30;5.27;;;;;;;16.63;100.00;102094.91;5070874;28;20192;-70
2023/06/12 04:03:21;;;;;;;8.20;5.17;;;;;;;16.67;100.00;102084.59;5068553;28;20616;-70
2023/06/12 04:05:48;;;;;;;8.63;5.53;;;;;;;16.73;100.00;102084.72;5068124;28;20195;-70
2023/06/12 04:08:13;;;;;;;9.17;5.33;;;;;;;16.84;100.00;102066.72;5062659;28;20198;-71
2023/06/12 04:10:40;;;;;;;7.63;5.40;;;;;;;16.93;100.00;102051.31;5065279;28;20318;-71
2023/06/12 04:13:06;;;;;;;7.17;4.80;;;;;;;16.95;100.00;102050.50;5069186;28;20712;-71
2023/06/12 04:15:31;;;;;;;7.53;5.20;;;;;;;16.99;100.00;102044.50;5069742;28;20320;-70
2023/06/12 04:18:00;;;;;;;9.20;5.70;;;;;;;17.04;100.00;102042.84;5078408;28;20549;-71
2023/06/12 04:20:29;;;;;;;7.87;5.50;;;;;;;17.07;100.00;102037.72;5076686;28;20189;-71
2023/06/12 04:22:56;;;;;;;6.70;5.37;;;;;;;17.13;100.00;102039.53;5046857;28;20221;-71
2023/06/12 04:25:28;;;;;;;7.47;6.00;;;;;;;17.20;100.00;102023.19;5069686;28;20555;-71
2023/06/12 04:27:53;;;;;;;9.27;5.47;;;;;;;17.22;100.00;102024.94;5078904;28;20207;-71
2023/06/12 04:30:21;;;;;;;7.43;5.67;;;;;;;17.29;100.00;102019.00;5077835;28;20572;-71
2023/06/12 04:32:48;;;;;;;7.97;5.30;;;;;;;17.34;100.00;102016.44;5064630;28;20205;-70
2023/06/12 04:35:16;;;;;;;10.30;5.70;;;;;;;17.37;100.00;102017.34;5070062;28;20646;-71
2023/06/12 04:37:42;;;;;;;11.93;5.70;;;;;;;17.45;100.00;102028.69;5072658;28;20534;-71
2023/06/12 04:40:11;;;;;;;7.10;4.90;;;;;;;17.47;100.00;102026.13;5074167;28;20568;-71
2023/06/12 04:42:37;;;;;;;10.17;5.57;;;;;;;17.52;100.00;102016.66;5074392;28;20289;-71
2023/06/12 04:45:04;;;;;;;6.97;5.47;;;;;;;17.59;100.00;102010.72;5072818;28;20284;-71
2023/06/12 04:47:30;;;;;;;8.53;5.50;;;;;;;17.64;100.00;102009.03;5081068;28;20200;-71
2023/06/12 04:49:57;;;;;;;5.77;5.13;;;;;;;17.70;100.00;101999.59;5072078;28;20605;-71
2023/06/12 04:52:24;;;;;;;9.80;5.40;;;;;;;17.75;100.00;102007.38;5061053;28;20558;-71
2023/06/12 04:54:52;;;;;;;6.97;5.37;;;;;;;17.81;100.00;101986.69;5064611;28;20193;-71
2023/06/12 04:57:18;;;;;;;11.10;5.80;;;;;;;17.87;100.00;101982.44;5073311;28;20612;-71
2023/06/12 04:59:45;;;;;;;6.77;5.37;;;;;;;17.96;100.00;101987.69;5082335;28;20271;-71
2023/06/12 05:02:12;;;;;;;8.23;5.40;;;;;;;18.05;100.00;101968.78;5076261;28;20227;-70
2023/06/12 05:04:38;;;;;;;6.50;5.80;;;;;;;18.11;100.00;101969.69;5087899;28;21122;-70
2023/06/12 05:07:13;;;;;;;8.30;5.87;;;;;;;18.20;100.00;101971.47;5073958;28;20205;-70
2023/06/12 05:09:40;;;;;;;10.77;5.57;;;;;;;18.31;100.00;101962.00;5079141;28;20586;-71
2023/06/12 05:12:06;;;;;;;7.17;5.53;;;;;;;18.39;100.00;101953.47;5078888;28;20180;-71
2023/06/12 05:14:38;;;;;;;7.77;4.93;;;;;;;18.48;100.00;101950.03;5074141;28;20379;-70
2023/06/12 05:17:04;;;;;;;9.97;5.83;;;;;;;18.56;100.00;101931.03;5074211;28;20204;-70
2023/06/12 05:19:30;;;;;;;6.53;5.47;;;;;;;18.68;100.00;101938.88;5075342;28;20185;-71
2023/06/12 05:21:55;;;;;;;7.47;5.50;;;;;;;18.84;100.00;101921.66;5071351;28;20205;-71
2023/06/12 05:24:20;;;;;;;10.17;5.57;;;;;;;18.95;100.00;101920.81;5074700;28;20580;-70
2023/06/12 05:26:47;;;;;;;7.70;5.37;;;;;;;19.08;100.00;101920.00;5066650;28;20189;-70
2023/06/12 05:29:12;;;;;;;8.40;5.27;;;;;;;19.15;98.70;101900.06;5071379;28;20197;-70
2023/06/12 05:31:38;;;;;;;7.83;5.43;;;;;;;19.30;95.44;101876.75;5068373;28;20322;-70
2023/06/12 05:34:04;;;;;;;9.47;5.70;;;;;;;19.45;95.54;101875.03;5054763;28;20212;-70
2023/06/12 05:36:31;;;;;;;6.67;5.23;;;;;;;19.56;92.60;101849.88;5073700;28;20276;-71
2023/06/12 05:38:58;;;;;;;8.60;5.43;;;;;;;19.68;90.19;101846.41;5063548;28;20204;-71
2023/06/12 05:41:25;;;;;;;7.97;5.60;;;;;;;19.76;85.13;101809.13;5054252;28;20177;-71
2023/06/12 05:43:50;;;;;;;9.87;5.47;;;;;;;19.88;84.48;101814.28;5080137;28;20231;-71
2023/06/12 05:46:16;;;;;;;13.53;5.87;;;;;;;19.91;82.34;101788.28;5080889;28;20681;-72
2023/06/12 05:48:41;;;;;;;6.57;5.77;;;;;;;20.00;81.19;101780.44;5069626;28;20191;-70
2023/06/12 05:51:07;;;;;;;7.17;5.57;;;;;;;20.14;82.39;101793.44;5067542;28;20334;-71
2023/06/12 05:53:34;;;;;;;7.40;5.47;;;;;;;20.20;80.37;101781.25;5064840;28;20835;-71
2023/06/12 05:56:00;;;;;;;8.17;6.20;;;;;;;20.27;78.75;101771.69;5065379;28;20235;-71
2023/06/12 05:58:26;;;;;;;7.77;5.90;;;;;;;20.40;78.01;101765.56;5057821;28;20209;-70
2023/06/12 06:00:53;;;;;;;7.23;5.50;;;;;;;20.51;76.31;101750.72;5071945;28;20313;-71
2023/06/12 06:03:42;;;;;;;6.33;5.40;;;;;;;20.65;77.49;101762.78;5058564;28;20224;-71
2023/06/12 06:06:12;;;;;;;6.53;5.67;;;;;;;20.77;76.65;101762.66;5067788;28;20792;-71
2023/06/12 06:08:38;;;;;;;8.93;5.73;;;;;;;20.87;75.71;101756.50;5066416;28;20196;-71
2023/06/12 06:11:04;;;;;;;8.00;6.00;;;;;;;20.93;71.65;101730.47;5065247;28;20189;-72
2023/06/12 06:13:30;;;;;;;10.03;5.60;;;;;;;21.04;71.35;101739.03;5060372;28;20223;-72
2023/06/12 06:15:56;;;;;;;6.53;5.57;;;;;;;21.16;71.98;101751.09;5074682;28;20189;-72
2023/06/12 06:18:21;;;;;;;9.87;5.63;;;;;;;21.13;67.19;101727.66;5075670;28;20193;-72
2023/06/12 06:20:48;;;;;;;8.17;6.03;;;;;;;21.13;65.79;101722.44;5064280;28;20236;-72
2023/06/12 06:23:13;;;;;;;7.93;5.43;;;;;;;21.33;65.96;101738.78;5064922;28;20303;-72
2023/06/12 06:25:39;;;;;;;7.77;5.67;;;;;;;21.39;65.71;101739.59;5065049;28;20193;-72
2023/06/12 06:28:05;;;;;;;7.43;5.30;;;;;;;21.57;64.61;101742.00;5062534;28;20189;-70
2023/06/12 06:30:31;;;;;;;10.20;5.67;;;;;;;21.53;63.54;101736.81;5070618;28;20197;-72
2023/06/12 06:32:56;;;;;;;8.73;6.00;;;;;;;21.58;61.72;101735.88;5069125;28;20258;-72
2023/06/12 06:35:23;;;;;;;5.77;4.93;;;;;;;21.73;62.62;101753.13;5063932;28;20288;-72
2023/06/12 06:37:49;;;;;;;7.13;5.97;;;;;;;21.84;61.90;101746.91;5065075;28;20280;-72
2023/06/12 06:40:14;;;;;;;7.33;5.50;;;;;;;21.96;60.87;101749.38;5064793;28;20189;-72
2023/06/12 06:42:41;;;;;;;7.30;5.47;;;;;;;22.09;60.46;101750.06;5058094;28;20225;-71
2023/06/12 06:45:10;;;;;;;8.97;5.60;;;;;;;22.10;58.76;101737.00;5051517;28;20192;-70
2023/06/12 06:47:36;;;;;;;8.53;5.60;;;;;;;22.18;60.35;101766.47;5063124;28;20189;-70
2023/06/12 06:50:03;;;;;;;6.87;5.23;;;;;;;22.35;58.90;101756.66;5055876;28;20228;-70
2023/06/12 06:52:29;;;;;;;9.97;5.80;;;;;;;22.39;56.87;101745.28;5042186;28;20182;-71
2023/06/12 06:54:55;;;;;;;9.27;5.80;;;;;;;22.51;56.47;101756.50;5063193;28;20196;-70
2023/06/12 06:57:23;;;;;;;7.80;5.03;;;;;;;22.60;55.14;101754.59;5064117;28;20228;-71
2023/06/12 06:59:50;;;;;;;8.20;5.13;;;;;;;22.79;56.27;101776.91;5062703;28;20600;-71
2023/06/12 07:02:15;;;;;;;9.67;5.17;;;;;;;22.77;54.63;101770.00;5065094;28;20217;-71
2023/06/12 07:04:42;;;;;;;10.50;6.30;;;;;;;22.76;55.00;101784.81;5063969;28;20186;-70
2023/06/12 07:07:09;;;;;;;7.03;5.30;;;;;;;22.95;55.68;101801.94;5061571;28;20738;-70
2023/06/12 07:09:34;;;;;;;7.47;5.63;;;;;;;22.99;54.85;101785.31;5066840;28;20193;-71
2023/06/12 07:12:00;;;;;;;7.07;5.50;;;;;;;23.29;53.74;101776.13;5057078;28;20193;-71
2023/06/12 07:14:26;;;;;;;5.43;4.70;;;;;;;23.05;53.64;101793.06;5046253;28;20218;-71
2023/06/12 07:16:51;;;;;;;8.80;5.67;;;;;;;23.26;53.50;101831.09;5064966;28;20208;-71
2023/06/12 07:19:17;;;;;;;7.27;5.40;;;;;;;23.10;53.92;101834.78;5061728;28;20225;-72
2023/06/12 07:21:43;;;;;;;6.20;5.37;;;;;;;23.44;52.74;101829.00;5076226;28;20632;-71
2023/06/12 07:24:08;;;;;;;5.50;4.80;;;;;;;23.39;51.47;101824.75;5063918;28;20619;-71
2023/06/12 07:26:34;;;;;;;5.50;5.00;;;;;;;23.74;52.44;101856.38;5073860;28;20655;-71
2023/06/12 07:29:04;;;;;;;5.67;4.90;;;;;;;23.88;50.61;101836.03;5065580;28;20193;-71
2023/06/12 07:31:30;;;;;;;9.40;5.37;;;;;;;23.95;50.43;101843.81;5065166;28;20546;-71
2023/06/12 07:33:56;;;;;;;10.17;5.73;;;;;;;23.97;50.21;101841.13;5061708;28;20495;-71
2023/06/12 07:36:21;;;;;;;7.00;5.40;;;;;;;24.39;51.88;101875.19;5050963;28;20220;-71
2023/06/12 07:38:47;;;;;;;10.30;5.50;;;;;;;24.25;49.03;101843.19;5067720;28;20211;-71
2023/06/12 07:41:12;;;;;;;7.78;5.03;;;;;;;24.41;48.79;101851.59;5057534;28;20185;-71
2023/06/12 07:43:38;;;;;;;9.38;5.35;;;;;;;24.58;49.55;101862.56;5052511;28;20225;-71
2023/06/12 07:46:04;;;;;;;5.10;4.60;;;;;;;24.51;49.03;101853.09;5062950;28;20196;-71
2023/06/12 07:48:29;;;;;;;6.25;4.85;;;;;;;24.82;50.20;101886.50;5061639;28;20185;-71
2023/06/12 07:50:55;;;;;;;7.93;5.10;;;;;;;24.86;48.12;101851.44;5068584;28;20251;-71
2023/06/12 07:53:22;;;;;;;8.20;5.10;;;;;;;24.97;48.02;101861.69;5048798;28;20206;-71
2023/06/12 07:55:52;;;;;;;5.78;5.18;;;;;;;24.95;48.06;101863.50;5065087;28;20216;-71
2023/06/12 07:58:18;;;;;;;6.85;4.53;;;;;;;25.13;47.55;101865.66;5058376;28;20268;-71
2023/06/12 08:00:43;;;;;;;6.72;4.90;;;;;;;25.35;46.68;101853.78;5049879;28;20287;-72
2023/06/12 08:03:09;;;;;;;7.30;4.70;;;;;;;25.56;46.58;101859.34;5077048;28;20252;-72
2023/06/12 08:05:40;;;;;;;4.82;4.40;;;;;;;25.66;46.12;101865.22;5077139;28;20188;-72
2023/06/12 08:08:12;;;;;;;8.77;5.00;;;;;;;25.71;45.59;101861.59;5063143;28;20227;-70
2023/06/12 08:10:37;;;;;;;7.35;4.80;;;;;;;25.76;44.89;101861.47;5062123;28;20293;-70
2023/06/12 08:13:04;;;;;;;11.18;5.25;;;;;;;26.00;44.41;101861.69;5060432;28;20197;-70
2023/06/12 08:15:29;;;;;;;7.32;4.43;;;;;;;26.08;44.61;101861.47;5065315;28;20180;-70
2023/06/12 08:17:55;;;;;;;5.75;4.22;;;;;;;26.25;44.39;101862.72;5065979;28;20204;-70
2023/06/12 08:20:20;;;;;;;6.75;4.60;;;;;;;26.49;42.99;101862.03;5065170;28;20202;-71
2023/06/12 08:22:47;;;;;;;5.47;4.15;;;;;;;26.49;42.09;101867.28;5055830;28;20260;-71
2023/06/12 08:25:13;;;;;;;5.75;4.50;;;;;;;26.60;42.13;101872.22;5065218;28;20284;-70
2023/06/12 08:27:39;;;;;;;7.07;4.10;;;;;;;26.64;41.92;101863.34;5062682;28;20271;-70
2023/06/12 08:30:06;;;;;;;5.50;4.07;;;;;;;26.66;41.59;101878.16;5066146;28;20737;-70
2023/06/12 08:32:31;;;;;;;5.63;4.20;;;;;;;26.93;42.10;101865.97;5065460;28;20193;-70
2023/06/12 08:34:58;;;;;;;8.05;4.68;;;;;;;27.18;41.54;101866.88;5065962;28;20645;-70
2023/06/12 08:37:23;;;;;;;8.75;4.43;;;;;;;27.22;40.85;101858.03;5070714;28;20671;-70
2023/06/12 08:39:49;;;;;;;5.47;3.80;;;;;;;27.22;38.86;101863.28;5066948;28;20196;-70
2023/06/12 08:42:16;;;;;;;8.05;4.38;;;;;;;27.34;37.80;101850.56;5064751;28;20695;-72
2023/06/12 08:44:44;;;;;;;6.00;4.32;;;;;;;27.58;36.59;101854.16;5080144;28;20593;-71
2023/06/12 08:47:11;;;;;;;8.20;3.35;;;;;;;27.61;36.76;101868.06;5069999;28;20185;-71
2023/06/12 08:49:37;;;;;;;5.95;3.42;;;;;;;27.68;35.87;101861.66;5068286;28;20189;-71
2023/06/12 08:52:03;;;;;;;5.47;3.45;;;;;;;27.86;35.21;101842.63;5069416;28;20185;-71
2023/06/12 08:54:32;;;;;;;5.85;3.78;;;;;;;27.93;34.66;101846.78;5069933;28;20546;-71
2023/06/12 08:56:59;;;;;;;6.18;3.38;;;;;;;27.90;34.18;101853.94;5063154;28;20666;-71
2023/06/12 08:59:24;;;;;;;8.77;3.40;;;;;;;27.71;34.40;101858.94;5067451;28;20185;-71
2023/06/12 09:01:53;;;;;;;8.13;3.13;;;;;;;27.96;34.14;101854.53;5070394;28;20583;-70
2023/06/12 09:04:37;;;;;;;6.78;3.58;;;;;;;27.88;33.96;101869.78;5069767;28;20213;-70
2023/06/12 09:07:03;;;;;;;4.60;3.22;;;;;;;28.10;34.15;101883.03;5069532;28;20665;-70
2023/06/12 09:09:39;;;;;;;8.77;3.20;;;;;;;28.20;32.31;101853.66;5066198;28;20185;-70
2023/06/12 09:12:09;;;;;;;4.78;3.35;;;;;;;28.39;32.03;101867.00;5064038;28;20193;-70
2023/06/12 09:14:35;;;;;;;10.75;3.15;;;;;;;28.32;32.18;101868.16;5069942;28;20209;-71
2023/06/12 09:17:04;;;;;;;6.57;2.92;;;;;;;28.36;32.35;101872.41;5062579;28;20200;-70
2023/06/12 09:19:41;;;;;;;5.78;3.42;;;;;;;28.37;32.09;101869.69;5070573;28;20566;-70
2023/06/12 09:22:07;;;;;;;6.78;3.05;;;;;;;28.49;30.90;101853.47;5067366;28;20220;-70
2023/06/12 09:24:32;;;;;;;3.85;3.00;;;;;;;27.99;31.45;101872.00;5052459;28;20213;-70
2023/06/12 09:26:59;;;;;;;4.38;3.40;;;;;;;27.88;31.12;101859.25;5042316;28;20189;-69
2023/06/12 09:29:35;;;;;;;4.00;3.40;;;;;;;28.22;31.79;101872.03;5062874;28;20623;-69
2023/06/12 09:32:06;;;;;;;4.15;3.15;;;;;;;28.35;32.11;101868.03;5069185;28;20192;-69
2023/06/12 09:34:34;;;;;;;4.63;3.28;;;;;;;28.02;31.94;101856.97;5070147;28;20659;-69
2023/06/12 09:37:01;;;;;;;9.05;3.80;;;;;;;28.02;31.02;101848.19;5068354;28;20272;-70
2023/06/12 09:39:28;;;;;;;5.13;3.38;;;;;;;27.93;31.82;101872.25;5063260;28;20202;-70
2023/06/12 09:41:58;;;;;;;4.75;3.45;;;;;;;28.60;32.42;101887.34;5065048;28;20263;-70
2023/06/12 09:44:25;;;;;;;5.00;3.70;;;;;;;28.72;31.84;101858.69;5063520;28;20299;-70
2023/06/12 09:46:51;;;;;;;3.42;3.13;;;;;;;28.90;31.20;101859.75;5067917;28;20200;-71
2023/06/12 09:49:23;;;;;;;4.80;3.70;;;;;;;28.87;31.47;101863.38;5069439;28;20684;-71
2023/06/12 09:51:50;;;;;;;5.40;3.92;;;;;;;28.94;32.15;101870.13;5068296;28;20556;-71
2023/06/12 09:54:18;;;;;;;5.85;3.72;;;;;;;28.96;31.01;101860.38;5069690;28;20217;-71
2023/06/12 09:56:48;;;;;;;6.22;3.88;;;;;;;28.86;31.95;101871.34;5064464;28;20246;-71
2023/06/12 09:59:18;;;;;;;7.30;3.72;;;;;;;28.97;32.04;101879.72;5065617;28;20193;-71
2023/06/12 10:01:46;;;;;;;5.13;4.10;;;;;;;28.92;30.74;101863.19;5066348;28;20215;-71
2023/06/12 10:04:17;;;;;;;10.27;3.92;;;;;;;29.27;31.50;101870.56;5066106;28;20220;-71
2023/06/12 10:06:44;;;;;;;7.38;3.85;;;;;;;29.21;31.29;101873.47;5068993;28;20350;-71
2023/06/12 10:09:10;;;;;;;7.00;3.90;;;;;;;28.86;31.65;101869.56;5066672;28;20283;-71
2023/06/12 10:11:37;;;;;;;7.05;4.10;;;;;;;29.24;31.17;101862.78;5063193;28;20189;-71
2023/06/12 10:14:03;;;;;;;4.85;3.55;;;;;;;29.30;30.97;101867.81;5064995;28;20221;-71
2023/06/12 10:16:31;;;;;;;8.73;3.50;;;;;;;29.49;30.93;101881.94;5069703;28;20203;-71
2023/06/12 10:18:57;;;;;;;8.43;3.70;;;;;;;29.54;30.74;101867.66;5082531;28;20311;-71
2023/06/12 10:21:23;;;;;;;4.20;3.40;;;;;;;29.59;29.21;101851.63;5069987;28;20193;-71
2023/06/12 10:23:51;;;;;;;5.28;3.92;;;;;;;29.50;29.87;101865.19;5068093;28;20219;-71
2023/06/12 10:26:16;;;;;;;6.00;3.78;;;;;;;29.58;30.35;101868.41;5064006;28;20197;-71
2023/06/12 10:28:42;;;;;;;6.88;3.83;;;;;;;29.57;29.83;101874.59;5061349;28;20268;-71
2023/06/12 10:31:15;;;;;;;5.03;3.35;;;;;;;29.69;29.82;101853.81;5067453;28;20215;-70
2023/06/12 10:34:09;;;;;;;5.88;3.70;;;;;;;29.69;28.95;101856.44;5069029;28;20411;-71
2023/06/12 10:36:41;;;;;;;10.10;4.00;;;;;;;29.38;29.36;101874.47;5071849;28;20193;-71
2023/06/12 10:39:14;;;;;;;4.57;3.47;;;;;;;29.67;29.55;101875.94;5062622;28;20198;-71
2023/06/12 10:41:51;;;;;;;8.45;3.38;;;;;;;29.50;28.79;101855.50;5065571;28;20183;-71
2023/06/12 10:44:35;;;;;;;4.20;3.25;;;;;;;29.57;28.11;101837.63;5062184;28;20240;-71
2023/06/12 10:47:02;;;;;;;7.30;2.90;;;;;;;29.81;28.44;101844.47;5063943;28;20185;-71
2023/06/12 10:49:27;;;;;;;3.50;2.97;;;;;;;30.22;28.40;101850.59;5064894;28;20966;-71
2023/06/12 10:51:53;;;;;;;3.90;3.03;;;;;;;29.13;28.34;101857.06;5065825;28;20192;-70
2023/06/12 10:54:27;;;;;;;4.10;3.08;;;;;;;29.39;28.76;101870.06;5067655;28;20233;-70
2023/06/12 10:56:58;;;;;;;3.78;2.78;;;;;;;29.70;28.69;101849.38;5059107;28;20211;-70
2023/06/12 10:59:34;;;;;;;4.93;3.10;;;;;;;29.57;27.77;101837.63;5067130;28;20283;-70
2023/06/12 11:02:01;;;;;;;6.43;3.03;;;;;;;29.81;27.64;101825.97;5066251;28;20585;-70
2023/06/12 11:04:26;;;;;;;3.75;3.17;;;;;;;29.78;27.03;101834.91;5067182;28;20213;-70
2023/06/12 11:06:52;;;;;;;8.55;3.20;;;;;;;29.92;27.63;101847.50;5065835;28;20191;-71
2023/06/12 11:09:17;;;;;;;4.40;2.70;;;;;;;29.92;28.84;101850.13;5065901;28;20291;-71
2023/06/12 11:11:48;;;;;;;3.60;3.08;;;;;;;29.75;27.30;101831.56;5068478;28;20220;-70
2023/06/12 11:14:14;;;;;;;6.43;3.25;;;;;;;29.75;27.51;101834.19;5064473;28;20215;-70
2023/06/12 11:16:40;;;;;;;3.50;2.90;;;;;;;29.79;27.96;101833.13;5070138;28;20173;-70
2023/06/12 11:19:06;;;;;;;6.20;3.58;;;;;;;29.71;26.79;101812.31;5071469;28;20728;-71
2023/06/12 11:21:32;;;;;;;7.53;3.28;;;;;;;29.86;27.79;101855.72;5064676;28;20207;-70
2023/06/12 11:24:05;;;;;;;6.05;2.92;;;;;;;29.89;28.25;101852.94;5065475;28;20915;-70